Time;durP1;ratioP1;P1;durP2;ratioP2;P2;SDS_P1;SDS_P2;PMS_P1;PMS_P2;Temp;Humidity;BMP_temperature;BMP_pressure;BME280_temperature;BME280_humidity;BME280_pressure;Samples;Min_cycle;Max_cycle;Signal;HPM_P1;HPM_P2
2022/07/12 05:00:35;;;;;;;4.83;3.63;;;18.40;97.20;;;;;;1708435;29;20581;-75
2022/07/12 05:01:26;;;;;;;5.32;3.75;;;18.50;97.20;;;;;;1708315;29;20297;-74
2022/07/12 05:02:18;;;;;;;4.73;4.37;;;18.50;97.20;;;;;;1708297;29;20226;-74
2022/07/12 05:03:09;;;;;;;8.57;4.25;;;18.50;97.20;;;;;;1707745;28;20473;-74
2022/07/12 05:04:00;;;;;;;4.50;4.10;;;18.50;97.20;;;;;;1708188;28;20202;-74
2022/07/12 05:04:51;;;;;;;6.00;4.43;;;18.50;97.20;;;;;;1708399;28;20217;-74
2022/07/12 05:05:43;;;;;;;4.30;3.90;;;18.50;97.20;;;;;;1708280;28;20202;-75
2022/07/12 05:06:34;;;;;;;4.68;4.28;;;18.50;97.20;;;;;;1708016;28;20456;-75
2022/07/12 05:07:26;;;;;;;4.60;3.87;;;18.50;97.20;;;;;;1708346;28;20226;-75
2022/07/12 05:08:16;;;;;;;4.78;3.83;;;18.60;97.20;;;;;;1708218;28;20213;-75
2022/07/12 05:09:08;;;;;;;4.30;3.90;;;18.60;97.20;;;;;;1708352;28;20421;-75
2022/07/12 05:09:59;;;;;;;4.55;3.70;;;18.60;97.20;;;;;;1708250;28;20202;-74
2022/07/12 05:10:51;;;;;;;4.28;3.88;;;18.60;97.20;;;;;;1708218;28;20203;-75
2022/07/12 05:11:42;;;;;;;4.03;3.67;;;18.60;97.20;;;;;;1708252;28;20264;-74
2022/07/12 05:12:35;;;;;;;3.60;3.30;;;18.70;97.20;;;;;;1708234;28;20258;-75
2022/07/12 05:13:26;;;;;;;3.90;3.60;;;18.70;97.20;;;;;;1707187;28;20203;-74
2022/07/12 05:14:18;;;;;;;3.90;3.60;;;18.70;97.20;;;;;;1708551;28;20285;-74
2022/07/12 05:15:09;;;;;;;4.45;4.05;;;18.70;97.20;;;;;;1708446;28;20578;-74
2022/07/12 05:16:01;;;;;;;4.50;4.10;;;18.70;97.20;;;;;;1705229;29;20200;-74
2022/07/12 05:16:53;;;;;;;4.20;3.80;;;18.80;97.20;;;;;;1706648;28;20203;-74
2022/07/12 05:17:43;;;;;;;5.05;3.80;;;18.80;97.20;;;;;;1705397;28;20199;-74
2022/07/12 05:18:36;;;;;;;4.53;4.13;;;18.80;97.20;;;;;;1704783;28;20294;-75
2022/07/12 05:19:27;;;;;;;6.32;4.20;;;18.80;97.20;;;;;;1707209;28;20571;-74
2022/07/12 05:20:19;;;;;;;5.60;4.03;;;18.80;97.20;;;;;;1704977;29;20628;-74
2022/07/12 05:21:10;;;;;;;5.18;4.25;;;18.90;97.20;;;;;;1708620;28;20206;-74
2022/07/12 05:22:03;;;;;;;5.35;4.85;;;18.90;97.20;;;;;;1703582;28;20281;-74
2022/07/12 05:22:54;;;;;;;5.15;4.63;;;18.90;97.20;;;;;;1707362;28;20269;-74
2022/07/12 05:23:46;;;;;;;5.55;5.00;;;18.90;97.20;;;;;;1707713;28;20194;-75
2022/07/12 05:24:36;;;;;;;5.63;5.00;;;18.90;97.20;;;;;;1708085;29;20202;-74
2022/07/12 05:25:27;;;;;;;5.10;4.60;;;18.90;97.20;;;;;;1708037;28;20293;-74
2022/07/12 05:26:19;;;;;;;9.73;5.23;;;18.90;97.20;;;;;;1708148;28;20226;-74
2022/07/12 05:27:10;;;;;;;5.85;4.65;;;19.00;97.20;;;;;;1707695;28;20207;-75
2022/07/12 05:28:01;;;;;;;4.73;4.30;;;19.00;97.20;;;;;;1708136;28;20286;-74
2022/07/12 05:28:54;;;;;;;5.03;4.53;;;19.00;97.20;;;;;;1708190;28;20213;-74
2022/07/12 05:29:44;;;;;;;4.88;3.78;;;19.00;97.20;;;;;;1707770;28;20203;-75
2022/07/12 05:30:36;;;;;;;5.30;4.40;;;19.00;97.20;;;;;;1708158;28;20283;-74
2022/07/12 05:31:28;;;;;;;5.32;4.15;;;19.10;97.20;;;;;;1708162;29;20217;-75
2022/07/12 05:32:20;;;;;;;8.00;4.63;;;19.10;97.20;;;;;;1708055;29;20217;-75
2022/07/12 05:33:12;;;;;;;5.85;4.57;;;19.10;97.20;;;;;;1708041;29;20227;-75
2022/07/12 05:34:03;;;;;;;5.15;4.75;;;19.10;97.20;;;;;;1708212;29;20273;-75
2022/07/12 05:34:54;;;;;;;5.55;5.00;;;19.10;97.20;;;;;;1708150;29;20206;-75
2022/07/12 05:35:46;;;;;;;7.23;4.60;;;19.10;97.20;;;;;;1708111;29;20230;-75
2022/07/12 05:36:37;;;;;;;9.50;4.65;;;19.10;97.20;;;;;;1707802;29;20206;-75
2022/07/12 05:37:29;;;;;;;7.53;4.50;;;19.10;97.20;;;;;;1708230;28;20206;-74
2022/07/12 05:38:20;;;;;;;6.43;4.45;;;19.20;97.20;;;;;;1708082;29;20450;-74
2022/07/12 05:39:11;;;;;;;6.20;4.50;;;19.20;97.20;;;;;;1708107;29;20285;-74
2022/07/12 05:40:02;;;;;;;9.82;4.30;;;19.20;97.20;;;;;;1707917;29;20199;-74
2022/07/12 05:40:54;;;;;;;6.63;4.85;;;19.20;97.20;;;;;;1708112;29;20206;-74
2022/07/12 05:41:46;;;;;;;4.30;3.90;;;19.20;97.20;;;;;;1708122;29;20221;-75
2022/07/12 05:42:38;;;;;;;6.13;4.72;;;19.20;97.20;;;;;;1707894;28;20237;-76
2022/07/12 05:43:28;;;;;;;6.25;4.60;;;19.30;97.20;;;;;;1707792;29;20291;-76
2022/07/12 05:44:20;;;;;;;6.20;4.63;;;19.30;97.20;;;;;;1708039;29;20327;-75
2022/07/12 05:45:11;;;;;;;4.97;4.53;;;19.30;97.20;;;;;;1708046;29;20210;-75
2022/07/12 05:46:04;;;;;;;5.23;3.97;;;19.30;97.20;;;;;;1707899;29;20202;-74
2022/07/12 05:46:56;;;;;;;4.40;3.85;;;19.30;97.20;;;;;;1707827;29;20207;-74
2022/07/12 05:47:48;;;;;;;5.07;3.88;;;19.30;97.20;;;;;;1708017;29;20268;-74
2022/07/12 05:48:38;;;;;;;4.30;3.90;;;19.40;97.20;;;;;;1708032;29;20218;-74
2022/07/12 05:49:30;;;;;;;6.83;3.93;;;19.40;97.20;;;;;;1708164;29;20301;-74
2022/07/12 05:50:21;;;;;;;5.20;3.88;;;19.40;97.20;;;;;;1707847;29;20199;-75
2022/07/12 05:53:31;;;;;;;4.20;3.80;;;19.50;97.20;;;;;;1708058;29;20225;-75
2022/07/12 05:54:22;;;;;;;4.53;3.58;;;19.50;97.20;;;;;;1708016;28;20215;-75
2022/07/12 05:55:14;;;;;;;4.63;3.77;;;19.50;97.20;;;;;;1708181;28;20261;-74
2022/07/12 05:56:06;;;;;;;4.53;3.80;;;19.50;97.20;;;;;;1708027;28;20250;-74
2022/07/12 05:56:56;;;;;;;4.20;3.80;;;19.50;97.20;;;;;;1707781;28;20210;-75
2022/07/12 05:57:48;;;;;;;7.30;3.90;;;19.50;97.20;;;;;;1707978;28;20209;-74
2022/07/12 05:58:39;;;;;;;4.85;3.83;;;19.60;97.20;;;;;;1708042;28;20670;-75
2022/07/12 05:59:31;;;;;;;4.47;4.13;;;19.60;97.20;;;;;;1708055;28;20723;-74
2022/07/12 06:00:21;;;;;;;4.40;3.65;;;19.60;97.20;;;;;;1707715;28;20296;-74
2022/07/12 06:01:13;;;;;;;4.60;4.20;;;19.60;97.20;;;;;;1707858;28;20195;-75
2022/07/12 06:02:06;;;;;;;5.45;4.47;;;19.60;97.20;;;;;;1708070;28;20202;-74
2022/07/12 06:02:58;;;;;;;7.63;6.93;;;19.70;97.20;;;;;;1707825;28;20241;-75
2022/07/12 06:03:49;;;;;;;6.45;5.80;;;19.70;97.20;;;;;;1707966;28;20203;-74
2022/07/12 06:04:40;;;;;;;6.20;5.57;;;19.70;97.20;;;;;;1707935;28;20237;-74
2022/07/12 06:05:31;;;;;;;7.53;5.35;;;19.80;97.20;;;;;;1707921;28;20445;-74
2022/07/12 06:06:23;;;;;;;5.37;4.10;;;19.80;97.20;;;;;;1708107;28;20208;-75
2022/07/12 06:07:14;;;;;;;4.95;3.70;;;19.80;97.20;;;;;;1707842;28;20721;-74
2022/07/12 06:08:06;;;;;;;4.20;3.80;;;19.80;97.20;;;;;;1708011;28;20714;-74
2022/07/12 06:08:56;;;;;;;4.05;3.75;;;19.80;97.20;;;;;;1707981;28;20202;-74
2022/07/12 06:09:48;;;;;;;5.47;4.20;;;19.90;97.20;;;;;;1707958;28;20228;-75
2022/07/12 06:10:39;;;;;;;4.65;4.25;;;19.90;97.20;;;;;;1707970;28;20214;-74
2022/07/12 06:11:32;;;;;;;4.67;4.20;;;19.90;97.20;;;;;;1708002;28;20297;-75
2022/07/12 06:12:23;;;;;;;4.18;3.88;;;19.90;97.20;;;;;;1707863;28;20210;-74
2022/07/12 06:13:15;;;;;;;4.60;4.20;;;19.90;97.20;;;;;;1707909;28;20222;-74
2022/07/12 06:14:06;;;;;;;4.00;3.58;;;19.90;97.20;;;;;;1708041;28;20206;-75
2022/07/12 06:14:57;;;;;;;3.50;3.20;;;19.90;97.20;;;;;;1707717;28;20277;-75
2022/07/12 06:15:48;;;;;;;5.07;3.85;;;19.90;97.20;;;;;;1707896;29;20226;-75
2022/07/12 06:16:40;;;;;;;4.93;3.80;;;19.90;97.20;;;;;;1707594;29;20306;-75
2022/07/12 06:17:32;;;;;;;4.20;3.80;;;20.00;97.20;;;;;;1707911;29;20457;-75
2022/07/12 06:18:24;;;;;;;5.43;3.50;;;20.00;97.20;;;;;;1707758;29;20293;-75
2022/07/12 06:19:15;;;;;;;4.57;4.18;;;20.00;97.20;;;;;;1707861;29;20685;-75
2022/07/12 06:20:08;;;;;;;3.47;3.17;;;20.00;97.20;;;;;;1707889;29;20646;-75
2022/07/12 06:20:58;;;;;;;3.85;3.40;;;20.00;97.20;;;;;;1707851;28;20206;-74
2022/07/12 06:21:50;;;;;;;3.73;3.43;;;20.00;97.20;;;;;;1707881;29;20234;-75
2022/07/12 06:22:41;;;;;;;5.70;3.50;;;20.10;97.20;;;;;;1707699;28;20207;-75
2022/07/12 06:23:33;;;;;;;3.80;3.50;;;20.10;97.20;;;;;;1707855;29;20302;-74
2022/07/12 06:24:23;;;;;;;4.13;3.30;;;20.10;97.20;;;;;;1707804;29;20206;-75
2022/07/12 06:25:15;;;;;;;5.37;3.40;;;20.10;97.20;;;;;;1707803;29;20720;-74
2022/07/12 06:26:06;;;;;;;3.35;3.05;;;20.20;97.20;;;;;;1707771;29;20222;-75
2022/07/12 06:26:58;;;;;;;4.90;3.63;;;20.20;97.20;;;;;;1707566;29;20241;-75
2022/07/12 06:27:49;;;;;;;5.35;3.20;;;20.20;97.20;;;;;;1707803;29;20454;-75
2022/07/12 06:28:41;;;;;;;3.40;2.90;;;20.20;97.20;;;;;;1707771;29;20206;-75
2022/07/12 06:29:31;;;;;;;4.82;3.33;;;20.20;97.20;;;;;;1707845;29;20465;-74
2022/07/12 06:30:23;;;;;;;5.33;3.00;;;20.30;97.20;;;;;;1707537;29;20194;-74
2022/07/12 06:31:14;;;;;;;3.60;3.30;;;20.30;97.20;;;;;;1708332;28;20221;-74
2022/07/12 06:32:06;;;;;;;4.20;3.80;;;20.30;97.20;;;;;;1707988;28;20226;-74
2022/07/12 06:32:59;;;;;;;4.18;3.10;;;20.30;97.20;;;;;;1707944;28;20313;-74
2022/07/12 06:33:50;;;;;;;4.28;3.17;;;20.30;97.20;;;;;;1707111;28;20211;-74
2022/07/12 06:34:42;;;;;;;5.13;2.97;;;20.30;97.20;;;;;;1707832;28;20195;-75
2022/07/12 06:35:34;;;;;;;4.50;2.90;;;20.30;97.20;;;;;;1707887;28;20446;-74
2022/07/12 06:36:26;;;;;;;3.35;2.83;;;20.40;97.20;;;;;;1707905;28;20490;-75
2022/07/12 06:37:16;;;;;;;3.38;3.00;;;20.40;97.20;;;;;;1707593;28;20246;-75
2022/07/12 06:38:08;;;;;;;3.30;3.00;;;20.40;97.20;;;;;;1707771;28;20206;-75
2022/07/12 06:38:59;;;;;;;4.55;2.80;;;20.40;97.20;;;;;;1707795;28;20207;-75
2022/07/12 06:39:51;;;;;;;3.20;2.90;;;20.40;97.20;;;;;;1707915;28;20233;-74
2022/07/12 06:40:41;;;;;;;2.92;2.55;;;20.50;97.20;;;;;;1707750;28;20210;-74
2022/07/12 06:41:33;;;;;;;3.93;3.13;;;20.50;97.20;;;;;;1707821;28;20234;-74
2022/07/12 06:42:24;;;;;;;3.42;3.13;;;20.50;97.20;;;;;;1707880;28;20614;-75
2022/07/12 06:43:16;;;;;;;3.07;2.60;;;20.50;97.20;;;;;;1707570;28;20647;-74
2022/07/12 06:44:07;;;;;;;3.83;2.78;;;20.60;97.20;;;;;;1707602;28;20207;-74
2022/07/12 06:44:59;;;;;;;2.50;2.30;;;20.60;97.20;;;;;;1707632;28;20194;-75
2022/07/12 06:45:50;;;;;;;2.60;2.40;;;20.60;97.20;;;;;;1707729;29;20206;-74
2022/07/12 06:46:41;;;;;;;4.47;2.20;;;20.60;97.20;;;;;;1707526;29;20203;-75
2022/07/12 06:47:32;;;;;;;2.35;2.15;;;20.70;97.20;;;;;;1707780;29;20567;-75
2022/07/12 06:48:25;;;;;;;2.17;1.97;;;20.70;97.20;;;;;;1707674;29;20310;-75
2022/07/12 06:49:16;;;;;;;2.15;1.77;;;20.70;97.20;;;;;;1707620;29;20207;-74
2022/07/12 06:50:08;;;;;;;1.73;1.63;;;20.70;97.20;;;;;;1707745;29;20282;-75
2022/07/12 06:50:59;;;;;;;2.60;1.80;;;20.70;97.20;;;;;;1707723;29;20211;-74
2022/07/12 06:51:51;;;;;;;1.80;1.70;;;20.80;97.20;;;;;;1707710;29;20202;-75
2022/07/12 06:52:42;;;;;;;2.40;1.80;;;20.80;97.20;;;;;;1707649;28;20206;-75
2022/07/12 06:53:34;;;;;;;2.10;1.87;;;20.80;97.20;;;;;;1707821;29;20314;-75
2022/07/12 06:54:25;;;;;;;2.20;1.98;;;20.80;97.20;;;;;;1707643;29;20249;-74
2022/07/12 06:55:16;;;;;;;2.03;1.92;;;20.80;97.20;;;;;;1707603;28;20206;-75
2022/07/12 06:56:07;;;;;;;3.67;2.08;;;20.80;97.20;;;;;;1707629;29;20217;-75
2022/07/12 06:56:59;;;;;;;1.80;1.70;;;20.80;97.20;;;;;;1707298;29;20729;-75
2022/07/12 06:57:50;;;;;;;1.70;1.58;;;20.80;97.20;;;;;;1707465;29;20454;-75
2022/07/12 06:58:42;;;;;;;1.70;1.60;;;20.80;97.20;;;;;;1707627;29;20293;-75
2022/07/12 06:59:32;;;;;;;1.95;1.50;;;20.80;97.20;;;;;;1707618;29;20457;-75
2022/07/12 07:00:24;;;;;;;3.13;1.70;;;20.80;97.20;;;;;;1707432;29;20197;-75
2022/07/12 07:01:16;;;;;;;2.22;2.03;;;20.80;97.20;;;;;;1707350;29;20202;-75
2022/07/12 07:02:08;;;;;;;3.72;1.60;;;20.80;97.20;;;;;;1707753;29;20209;-75
2022/07/12 07:02:59;;;;;;;3.47;2.15;;;20.80;97.20;;;;;;1707351;28;20225;-75
2022/07/12 07:03:52;;;;;;;2.00;1.73;;;20.80;97.20;;;;;;1707596;29;20233;-75
2022/07/12 07:04:43;;;;;;;3.45;1.90;;;20.80;97.20;;;;;;1707666;29;20546;-75
2022/07/12 07:05:36;;;;;;;2.43;1.60;;;20.80;97.20;;;;;;1707620;29;20639;-75
2022/07/12 07:06:27;;;;;;;2.10;1.90;;;20.80;97.20;;;;;;1707547;29;20206;-75
2022/07/12 07:07:18;;;;;;;2.17;1.90;;;20.90;97.20;;;;;;1707349;29;20202;-75
2022/07/12 07:08:09;;;;;;;6.07;2.22;;;20.90;97.20;;;;;;1707485;29;20589;-75
2022/07/12 07:09:01;;;;;;;2.40;1.90;;;20.90;97.20;;;;;;1707641;29;20230;-75
2022/07/12 07:09:52;;;;;;;2.45;2.00;;;20.90;97.20;;;;;;1707629;29;20206;-75
2022/07/12 07:10:44;;;;;;;2.93;2.37;;;20.90;97.20;;;;;;1707523;29;20209;-75
2022/07/12 07:11:36;;;;;;;5.22;2.22;;;20.90;97.20;;;;;;1707565;29;20450;-75
2022/07/12 07:12:28;;;;;;;3.05;2.10;;;20.90;97.20;;;;;;1707605;29;20206;-75
2022/07/12 07:13:19;;;;;;;2.40;2.13;;;20.90;97.20;;;;;;1707325;28;20604;-75
2022/07/12 07:14:11;;;;;;;3.30;1.70;;;21.00;97.20;;;;;;1707679;29;20202;-75
2022/07/12 07:15:01;;;;;;;2.15;1.95;;;21.00;97.20;;;;;;1707543;29;20207;-75
2022/07/12 07:15:53;;;;;;;2.43;1.90;;;21.00;97.20;;;;;;1707415;29;20293;-75
2022/07/12 07:16:44;;;;;;;2.42;2.20;;;21.00;97.20;;;;;;1707068;29;20446;-75
2022/07/12 07:17:36;;;;;;;3.73;2.80;;;21.10;97.20;;;;;;1707407;29;20265;-75
2022/07/12 07:18:27;;;;;;;6.90;2.20;;;21.10;97.20;;;;;;1707508;29;20207;-75
2022/07/12 07:19:22;;;;;;;2.20;2.00;;;21.10;97.20;;;;;;1707513;29;20217;-75
2022/07/12 07:20:13;;;;;;;2.38;1.98;;;21.20;97.20;;;;;;1707485;29;20210;-75
2022/07/12 07:21:05;;;;;;;2.33;2.13;;;21.20;97.20;;;;;;1707442;29;20190;-75
2022/07/12 07:21:56;;;;;;;2.35;1.50;;;21.20;97.20;;;;;;1707524;29;20210;-75
2022/07/12 07:22:48;;;;;;;7.37;2.40;;;21.30;97.20;;;;;;1707453;28;20293;-75
2022/07/12 07:23:38;;;;;;;3.45;2.00;;;21.30;97.20;;;;;;1707442;28;20997;-75
2022/07/12 07:24:30;;;;;;;2.50;1.73;;;21.40;97.20;;;;;;1707562;29;20578;-75
2022/07/12 07:25:21;;;;;;;1.83;1.73;;;21.40;97.20;;;;;;1707424;29;20670;-75
2022/07/12 07:26:13;;;;;;;3.30;1.60;;;21.50;97.20;;;;;;1707426;29;20722;-75
2022/07/12 07:27:04;;;;;;;3.20;2.63;;;21.50;97.20;;;;;;1707136;29;20213;-75
2022/07/12 07:27:56;;;;;;;2.42;1.80;;;21.50;97.20;;;;;;1707262;28;20294;-75
2022/07/12 07:31:05;;;;;;;2.28;1.50;;;21.60;97.20;;;;;;1707575;29;20700;-75
2022/07/12 07:31:57;;;;;;;1.50;1.40;;;21.70;97.20;;;;;;1707525;28;20677;-75
2022/07/12 07:32:47;;;;;;;1.95;1.48;;;21.70;97.20;;;;;;1707307;28;20458;-75
2022/07/12 07:33:39;;;;;;;2.60;1.80;;;21.70;97.20;;;;;;1707061;29;20702;-75
2022/07/12 07:34:31;;;;;;;2.67;1.55;;;21.80;97.20;;;;;;1707492;28;20211;-75
2022/07/12 07:35:24;;;;;;;2.00;1.48;;;21.80;97.20;;;;;;1707395;28;20241;-75
2022/07/12 07:36:15;;;;;;;1.88;1.77;;;21.80;97.20;;;;;;1707356;28;20677;-75
2022/07/12 07:37:06;;;;;;;2.33;1.50;;;21.90;97.20;;;;;;1707263;28;20640;-75
2022/07/12 07:37:57;;;;;;;3.15;1.58;;;21.90;97.20;;;;;;1707352;28;20694;-75
2022/07/12 07:38:49;;;;;;;3.87;1.70;;;21.90;97.20;;;;;;1707513;28;20635;-75
2022/07/12 07:39:40;;;;;;;2.10;1.95;;;21.90;97.20;;;;;;1707440;28;20217;-75
2022/07/12 07:40:32;;;;;;;1.50;1.40;;;22.00;97.20;;;;;;1707478;28;20285;-75
2022/07/12 07:41:22;;;;;;;1.60;1.40;;;22.00;97.20;;;;;;1707374;28;20210;-75
2022/07/12 07:42:14;;;;;;;1.20;1.10;;;22.00;97.20;;;;;;1707443;28;20290;-75
2022/07/12 07:43:05;;;;;;;1.25;1.15;;;22.00;97.20;;;;;;1707292;28;20234;-75
2022/07/12 07:43:57;;;;;;;1.33;1.00;;;22.00;97.20;;;;;;1707440;28;20746;-75
2022/07/12 07:44:47;;;;;;;1.40;1.30;;;22.00;97.20;;;;;;1707370;28;20473;-75
2022/07/12 07:45:39;;;;;;;1.63;0.90;;;22.10;97.20;;;;;;1707207;28;20205;-75
2022/07/12 07:46:30;;;;;;;1.80;0.90;;;22.10;97.20;;;;;;1707314;28;20217;-75
2022/07/12 07:47:22;;;;;;;1.00;0.80;;;22.10;97.20;;;;;;1707062;28;20289;-75
2022/07/12 07:48:12;;;;;;;1.27;1.10;;;22.10;97.20;;;;;;1707380;28;20211;-75
2022/07/12 07:49:04;;;;;;;1.07;0.97;;;22.10;97.20;;;;;;1707453;28;20290;-75
2022/07/12 07:49:56;;;;;;;3.83;1.48;;;22.10;97.20;;;;;;1706976;28;20209;-75
2022/07/12 07:50:48;;;;;;;1.50;1.25;;;22.10;97.20;;;;;;1707390;28;20206;-75
2022/07/12 07:51:39;;;;;;;2.40;1.42;;;22.10;97.20;;;;;;1707409;28;20207;-75
2022/07/12 07:52:30;;;;;;;1.60;1.10;;;22.20;97.20;;;;;;1707441;28;20237;-75
2022/07/12 07:53:23;;;;;;;1.50;1.40;;;22.20;97.20;;;;;;1707270;28;20229;-75
2022/07/12 07:54:15;;;;;;;2.08;1.33;;;22.20;97.20;;;;;;1707194;28;20705;-75
2022/07/12 07:55:06;;;;;;;3.15;1.50;;;22.20;97.20;;;;;;1707376;28;20568;-75
2022/07/12 07:55:58;;;;;;;2.25;1.42;;;22.30;97.20;;;;;;1707277;28;20202;-75
2022/07/12 07:56:49;;;;;;;1.30;1.20;;;22.30;97.20;;;;;;1707089;28;20238;-75
2022/07/12 07:57:41;;;;;;;1.70;1.60;;;22.30;97.20;;;;;;1707371;28;20203;-75
2022/07/12 07:58:31;;;;;;;2.20;1.80;;;22.40;97.20;;;;;;1707329;28;20202;-75
2022/07/12 07:59:23;;;;;;;2.30;1.37;;;22.40;97.20;;;;;;1707396;28;20297;-75
2022/07/12 08:00:14;;;;;;;2.75;1.50;;;22.40;97.20;;;;;;1707485;28;20575;-75
2022/07/12 08:01:06;;;;;;;2.65;1.73;;;22.40;97.20;;;;;;1707435;28;20194;-75
2022/07/12 08:01:57;;;;;;;1.60;1.40;;;22.50;97.20;;;;;;1707337;28;20202;-75
2022/07/12 08:02:49;;;;;;;1.40;1.30;;;22.50;97.20;;;;;;1707249;28;20301;-75
2022/07/12 08:03:39;;;;;;;6.75;1.80;;;22.50;97.20;;;;;;1707228;28;20226;-75
2022/07/12 08:04:31;;;;;;;1.50;1.40;;;22.50;97.20;;;;;;1710014;28;20293;-74
2022/07/12 08:05:24;;;;;;;2.30;1.70;;;22.50;97.20;;;;;;1707514;28;20218;-75
2022/07/12 08:06:15;;;;;;;1.65;1.55;;;22.60;97.20;;;;;;1707078;28;20202;-75
2022/07/12 08:07:06;;;;;;;4.35;1.75;;;22.60;97.20;;;;;;1707219;28;20206;-75
2022/07/12 08:07:58;;;;;;;1.47;1.37;;;22.60;97.20;;;;;;1707362;28;20257;-75
2022/07/12 08:08:49;;;;;;;1.30;1.20;;;22.60;97.20;;;;;;1707410;28;20206;-75
2022/07/12 08:09:41;;;;;;;2.40;1.30;;;22.60;97.20;;;;;;1707462;28;20210;-75
2022/07/12 08:10:31;;;;;;;1.00;0.90;;;22.60;97.20;;;;;;1707358;28;20293;-75
2022/07/12 08:11:23;;;;;;;1.43;1.00;;;22.60;97.20;;;;;;1707321;28;20206;-75
2022/07/12 08:12:14;;;;;;;2.20;1.10;;;22.60;97.20;;;;;;1707320;28;20298;-75
2022/07/12 08:13:06;;;;;;;1.30;1.20;;;22.60;97.20;;;;;;1707125;28;20230;-75
2022/07/12 08:13:57;;;;;;;1.52;1.15;;;22.60;97.20;;;;;;1707314;28;20210;-75
2022/07/12 08:14:48;;;;;;;1.20;1.10;;;22.70;97.20;;;;;;1707351;28;20306;-75
2022/07/12 08:15:40;;;;;;;2.05;1.38;;;22.70;97.20;;;;;;1707075;28;20198;-75
2022/07/12 08:16:32;;;;;;;1.63;1.27;;;22.70;97.20;;;;;;1707201;28;20206;-75
2022/07/12 08:17:22;;;;;;;1.30;1.20;;;22.70;97.20;;;;;;1707403;28;20585;-75
2022/07/12 08:18:14;;;;;;;1.57;1.17;;;22.70;97.20;;;;;;1707218;28;20202;-75
2022/07/12 08:19:06;;;;;;;1.20;1.10;;;22.70;97.20;;;;;;1707510;28;20217;-75
2022/07/12 08:19:58;;;;;;;2.17;1.45;;;22.70;97.20;;;;;;1707281;28;20226;-75
2022/07/12 08:20:50;;;;;;;1.08;0.98;;;22.70;97.20;;;;;;1707333;28;20708;-75
2022/07/12 08:21:42;;;;;;;2.75;1.45;;;22.70;97.20;;;;;;1707503;28;20289;-75
2022/07/12 08:22:33;;;;;;;1.45;1.35;;;22.60;97.20;;;;;;1707266;28;20202;-75
2022/07/12 08:23:24;;;;;;;1.30;1.20;;;22.70;97.20;;;;;;1706935;28;20205;-75
2022/07/12 08:24:15;;;;;;;1.60;1.50;;;22.60;97.20;;;;;;1707273;29;20533;-75
2022/07/12 08:25:08;;;;;;;1.90;1.70;;;22.60;97.20;;;;;;1707346;29;20199;-75
2022/07/12 08:25:59;;;;;;;2.17;1.95;;;22.60;97.20;;;;;;1707132;29;20822;-75
2022/07/12 08:26:50;;;;;;;2.30;1.97;;;22.60;97.20;;;;;;1707054;29;20289;-73
2022/07/12 08:27:41;;;;;;;4.25;2.75;;;22.70;97.20;;;;;;1707216;29;20206;-73
2022/07/12 08:28:33;;;;;;;3.13;2.23;;;22.70;97.20;;;;;;1707204;29;20202;-76
2022/07/12 08:29:24;;;;;;;4.22;1.90;;;22.70;97.20;;;;;;1707256;29;20454;-75
2022/07/12 08:30:16;;;;;;;2.27;2.10;;;22.70;97.20;;;;;;1707262;29;20712;-75
2022/07/12 08:31:08;;;;;;;3.83;2.38;;;22.70;97.20;;;;;;1707193;29;20349;-75
2022/07/12 08:31:59;;;;;;;2.88;2.00;;;22.80;97.20;;;;;;1707192;29;20662;-75
2022/07/12 08:32:51;;;;;;;3.53;1.70;;;22.80;97.20;;;;;;1707185;28;20840;-75
2022/07/12 08:33:42;;;;;;;6.85;6.25;;;22.80;97.20;;;;;;1707323;29;20291;-75
2022/07/12 08:34:33;;;;;;;6.33;5.83;;;22.80;97.20;;;;;;1707309;29;20206;-75
2022/07/12 08:35:24;;;;;;;6.32;5.75;;;22.80;97.20;;;;;;1707477;29;20211;-75
2022/07/12 08:36:17;;;;;;;3.27;3.00;;;22.80;97.20;;;;;;1707291;29;20282;-76
2022/07/12 08:37:08;;;;;;;2.80;2.60;;;22.80;97.20;;;;;;1706998;29;20213;-75
2022/07/12 08:38:00;;;;;;;2.40;2.20;;;22.80;97.20;;;;;;1707077;29;20285;-76
2022/07/12 08:38:50;;;;;;;2.28;2.08;;;22.80;97.20;;;;;;1707195;29;20576;-74
2022/07/12 08:39:42;;;;;;;2.30;1.33;;;22.80;97.20;;;;;;1707018;29;20302;-73
2022/07/12 08:40:33;;;;;;;1.92;1.60;;;22.70;97.20;;;;;;1707180;28;20218;-73
2022/07/12 08:41:25;;;;;;;2.40;1.77;;;22.70;97.20;;;;;;1707223;28;20297;-73
2022/07/12 08:42:18;;;;;;;2.42;2.00;;;22.70;97.20;;;;;;1707231;28;20202;-73
2022/07/12 08:43:10;;;;;;;2.00;1.80;;;22.70;97.20;;;;;;1707195;28;20222;-73
2022/07/12 08:44:01;;;;;;;1.98;1.30;;;22.70;97.20;;;;;;1707217;28;20234;-73
2022/07/12 08:44:56;;;;;;;1.30;1.10;;;22.70;97.20;;;;;;1707219;28;20238;-73
2022/07/12 08:45:47;;;;;;;1.98;1.60;;;22.70;97.20;;;;;;1707218;28;20211;-75
2022/07/12 08:46:39;;;;;;;4.83;2.57;;;22.70;97.20;;;;;;1706969;28;20245;-73
2022/07/12 08:47:30;;;;;;;5.97;5.40;;;22.70;97.20;;;;;;1707091;28;20206;-73
2022/07/12 08:48:22;;;;;;;5.20;4.00;;;22.70;97.20;;;;;;1707093;28;20261;-73
2022/07/12 08:49:14;;;;;;;2.40;2.20;;;22.80;97.20;;;;;;1707180;28;20207;-75
2022/07/12 08:50:13;;;;;;;3.00;2.00;;;22.80;97.20;;;;;;1707175;28;20214;-76
2022/07/12 08:51:06;;;;;;;2.42;1.80;;;22.90;97.20;;;;;;1707175;28;20214;-74
2022/07/12 08:51:58;;;;;;;2.17;1.85;;;22.90;97.20;;;;;;1707248;28;20693;-74
2022/07/12 08:52:52;;;;;;;2.50;1.75;;;22.90;97.20;;;;;;1707187;28;20210;-75
2022/07/12 08:53:43;;;;;;;4.40;1.50;;;23.00;97.20;;;;;;1707287;28;20637;-74
2022/07/12 08:54:40;;;;;;;2.28;1.40;;;23.00;97.20;;;;;;1707238;28;20213;-74
2022/07/12 08:55:33;;;;;;;1.60;1.33;;;23.10;97.20;;;;;;1706876;28;20214;-73
2022/07/12 08:56:32;;;;;;;2.00;1.65;;;23.10;97.20;;;;;;1707224;28;20225;-73
2022/07/12 08:57:29;;;;;;;1.52;1.20;;;23.20;97.20;;;;;;1707870;28;20289;-74
2022/07/12 08:58:21;;;;;;;2.17;1.40;;;23.20;97.20;;;;;;1708519;29;20205;-73
2022/07/12 08:59:14;;;;;;;1.40;1.30;;;23.30;97.20;;;;;;1708444;28;20693;-73
2022/07/12 09:00:07;;;;;;;1.65;1.17;;;23.30;97.20;;;;;;1708447;28;20209;-73
2022/07/12 09:00:58;;;;;;;1.95;1.33;;;23.40;97.20;;;;;;1708334;28;20206;-73
2022/07/12 09:01:51;;;;;;;2.50;1.63;;;23.40;97.20;;;;;;1708528;28;20269;-73
2022/07/12 09:02:47;;;;;;;2.38;1.58;;;23.50;97.20;;;;;;1708330;28;20573;-73
2022/07/12 09:03:39;;;;;;;1.70;1.60;;;23.50;97.20;;;;;;1708284;28;20272;-75
2022/07/12 09:04:30;;;;;;;1.42;1.33;;;23.50;97.20;;;;;;1708327;28;20207;-75
2022/07/12 09:05:23;;;;;;;1.60;1.50;;;23.50;97.20;;;;;;1708376;28;20664;-75
2022/07/12 09:06:16;;;;;;;1.60;1.50;;;23.50;97.20;;;;;;1708225;28;20250;-73
2022/07/12 09:07:16;;;;;;;1.50;1.40;;;23.60;97.20;;;;;;1708094;28;20261;-74
2022/07/12 09:08:08;;;;;;;1.88;1.40;;;23.60;97.20;;;;;;1708337;28;20207;-75
2022/07/12 09:09:00;;;;;;;1.63;1.52;;;23.60;97.20;;;;;;1708338;28;20636;-73
2022/07/12 09:09:51;;;;;;;2.15;1.70;;;23.60;97.20;;;;;;1708365;28;20214;-73
2022/07/12 09:10:54;;;;;;;2.50;1.50;;;23.60;97.20;;;;;;1708362;28;20249;-73
2022/07/12 09:11:47;;;;;;;2.45;1.38;;;23.60;97.20;;;;;;1708431;28;20247;-73
2022/07/12 09:12:40;;;;;;;1.35;1.25;;;23.60;97.20;;;;;;1707820;28;20563;-73
2022/07/12 09:13:51;;;;;;;1.77;1.27;;;23.60;97.20;;;;;;1708413;28;20221;-73
2022/07/12 09:14:43;;;;;;;1.40;1.30;;;23.60;97.20;;;;;;1708201;28;20205;-73
2022/07/12 09:15:33;;;;;;;1.30;1.20;;;23.60;97.20;;;;;;1708520;28;20214;-75
2022/07/12 09:16:26;;;;;;;1.67;1.43;;;23.60;97.20;;;;;;1708227;28;20209;-76
2022/07/12 09:17:21;;;;;;;1.75;1.50;;;23.60;97.20;;;;;;1708038;28;20210;-75
2022/07/12 09:18:15;;;;;;;2.33;1.30;;;23.60;97.20;;;;;;1708450;28;20560;-75
2022/07/12 09:19:17;;;;;;;1.30;1.20;;;23.60;97.20;;;;;;1708575;28;20575;-73
2022/07/12 09:20:11;;;;;;;1.52;1.20;;;23.70;97.20;;;;;;1708551;28;20724;-73
2022/07/12 09:21:02;;;;;;;1.65;1.45;;;23.70;97.20;;;;;;1708308;28;20209;-73
2022/07/12 09:21:55;;;;;;;1.63;1.40;;;23.70;97.20;;;;;;1708324;28;20285;-73
2022/07/12 09:22:54;;;;;;;1.73;1.50;;;23.70;97.20;;;;;;1708241;28;20446;-73
2022/07/12 09:23:53;;;;;;;2.50;1.30;;;23.70;97.20;;;;;;1708345;28;20202;-74
2022/07/12 09:24:43;;;;;;;2.40;1.80;;;23.80;97.20;;;;;;1708348;28;20286;-73
2022/07/12 09:25:35;;;;;;;5.43;4.93;;;23.80;97.20;;;;;;1708180;28;20261;-73
2022/07/12 09:26:31;;;;;;;2.90;2.70;;;23.80;97.20;;;;;;1707959;28;20453;-73
2022/07/12 09:27:26;;;;;;;1.73;1.58;;;23.80;97.20;;;;;;1708372;29;20663;-73
2022/07/12 09:28:16;;;;;;;3.60;2.42;;;23.90;97.20;;;;;;1708152;29;20670;-73
2022/07/12 09:29:10;;;;;;;2.80;2.60;;;23.90;97.20;;;;;;1708214;29;20714;-76
2022/07/12 09:30:01;;;;;;;2.80;2.22;;;23.90;97.20;;;;;;1708150;29;20267;-73
2022/07/12 09:30:54;;;;;;;4.15;2.90;;;23.90;97.20;;;;;;1708267;29;20209;-76
2022/07/12 09:36:30;;;;;;;3.33;3.00;;;24.10;97.20;;;;;;1710365;29;20197;-74
2022/07/12 09:37:21;;;;;;;2.30;2.10;;;24.20;97.20;;;;;;1708008;28;20206;-73
2022/07/12 09:38:14;;;;;;;4.00;2.15;;;24.20;97.20;;;;;;1708219;28;20205;-73
2022/07/12 09:39:05;;;;;;;4.07;2.60;;;24.20;97.20;;;;;;1708243;29;20217;-73
2022/07/12 09:39:58;;;;;;;2.90;2.70;;;24.30;97.20;;;;;;1708309;29;20206;-73